Time;durP1;ratioP1;P1;durP2;ratioP2;P2;SDS_P1;SDS_P2;PMS_P1;PMS_P2;Temp;Humidity;BMP_temperature;BMP_pressure;BME280_temperature;BME280_humidity;BME280_pressure;Samples;Min_cycle;Max_cycle;Signal;HPM_P1;HPM_P2
2023/01/30 00:00:28;;;;;;;12.23;5.47;;;;;;;11.16;70.13;101868.78;5037749;28;20507;-46
2023/01/30 00:02:53;;;;;;;13.88;5.32;;;;;;;11.12;70.18;101871.28;5042709;28;20041;-45
2023/01/30 00:05:18;;;;;;;12.93;5.05;;;;;;;11.26;70.00;101859.50;5039460;28;20029;-45
2023/01/30 00:07:45;;;;;;;16.48;5.95;;;;;;;11.32;69.49;101857.03;5043704;28;20064;-43
2023/01/30 00:10:11;;;;;;;18.50;6.55;;;;;;;10.63;71.88;101843.84;5040015;28;20040;-43
2023/01/30 00:12:36;;;;;;;19.38;5.97;;;;;;;10.87;71.90;101838.41;5041769;28;20029;-43
2023/01/30 00:15:02;;;;;;;18.58;5.70;;;;;;;10.71;72.19;101847.56;5042671;28;20040;-41
2023/01/30 00:17:27;;;;;;;11.55;5.15;;;;;;;10.94;70.88;101838.63;5038917;28;20037;-45
2023/01/30 00:19:52;;;;;;;14.60;5.65;;;;;;;10.70;72.42;101843.19;5044189;28;20036;-43
2023/01/30 00:22:18;;;;;;;16.73;5.38;;;;;;;10.85;72.00;101848.84;5038816;28;20033;-43
2023/01/30 00:24:43;;;;;;;16.02;5.00;;;;;;;10.94;71.33;101851.69;5042114;28;20358;-48
2023/01/30 00:27:08;;;;;;;15.23;5.45;;;;;;;10.89;71.26;101834.13;5039137;28;20025;-50
2023/01/30 00:29:33;;;;;;;14.93;4.82;;;;;;;10.56;72.48;101821.91;5041670;28;20032;-45
2023/01/30 00:31:59;;;;;;;16.60;5.00;;;;;;;10.87;71.68;101817.56;5041098;28;20040;-43
2023/01/30 00:34:24;;;;;;;12.18;4.43;;;;;;;10.91;71.43;101822.03;5039010;28;22864;-44
2023/01/30 00:36:49;;;;;;;13.32;4.57;;;;;;;11.08;70.93;101827.69;5042101;28;20091;-45
2023/01/30 00:39:15;;;;;;;16.80;5.03;;;;;;;10.81;71.42;101820.00;5039014;28;20073;-44
2023/01/30 00:47:08;;;;;;;12.80;4.70;;;;;;;10.99;70.50;101812.66;5043629;28;20082;-42
2023/01/30 00:49:36;;;;;;;16.95;4.88;;;;;;;10.80;71.93;101802.56;5046776;28;20029;-43
2023/01/30 00:52:01;;;;;;;15.43;4.78;;;;;;;10.46;72.43;101813.78;5079131;22;20047;-40
2023/01/30 00:54:26;;;;;;;19.10;4.75;;;;;;;11.04;71.05;101784.09;5100863;28;20044;-42
2023/01/30 00:56:52;;;;;;;17.50;4.55;;;;;;;10.66;72.02;101791.78;5105342;28;20071;-41
2023/01/30 00:59:17;;;;;;;13.85;5.00;;;;;;;10.83;70.65;101769.66;5101487;28;20044;-45
2023/01/30 01:01:42;;;;;;;17.20;4.57;;;;;;;11.11;70.59;101746.84;5086932;28;20035;-42
2023/01/30 01:04:09;;;;;;;19.92;4.50;;;;;;;10.76;70.91;101735.53;5104110;28;20447;-42
2023/01/30 01:06:35;;;;;;;18.15;4.28;;;;;;;10.81;70.46;101734.78;5080305;28;20036;-41
2023/01/30 01:09:01;;;;;;;16.77;4.18;;;;;;;10.77;70.73;101725.13;5107952;28;20122;-40
2023/01/30 01:11:26;;;;;;;12.02;3.88;;;;;;;10.74;70.23;101740.69;5100530;28;20115;-40
2023/01/30 01:13:53;;;;;;;12.07;4.03;;;;;;;11.16;68.34;101737.44;5104806;28;20024;-45
2023/01/30 01:16:19;;;;;;;11.27;3.50;;;;;;;10.61;70.67;101740.34;5101166;28;20057;-41
2023/01/30 01:18:44;;;;;;;10.40;3.92;;;;;;;10.87;69.57;101732.34;5086866;28;20028;-41
2023/01/30 01:21:10;;;;;;;14.70;3.47;;;;;;;10.91;69.63;101726.38;5099862;28;20785;-42
2023/01/30 01:23:35;;;;;;;13.63;3.60;;;;;;;11.01;68.70;101730.09;5104824;28;20122;-42
2023/01/30 01:26:01;;;;;;;14.27;3.40;;;;;;;10.51;69.81;101731.38;5104951;28;20059;-42
2023/01/30 01:28:26;;;;;;;10.40;3.55;;;;;;;10.64;69.76;101738.69;5101402;28;20042;-42
2023/01/30 01:30:52;;;;;;;11.00;3.10;;;;;;;10.71;69.53;101740.63;5103345;28;20035;-41
2023/01/30 01:33:17;;;;;;;13.60;3.50;;;;;;;10.96;68.42;101727.38;5100675;28;20130;-46
2023/01/30 01:35:42;;;;;;;16.30;3.40;;;;;;;10.65;69.52;101730.03;5105369;28;20553;-40
2023/01/30 01:38:08;;;;;;;15.48;3.60;;;;;;;10.58;69.19;101735.91;5101786;28;20028;-41
2023/01/30 01:41:08;;;;;;;12.60;3.58;;;;;;;10.65;69.53;101750.91;5105834;28;20031;-42
2023/01/30 01:43:25;;;;;;;15.77;3.72;;;;;;;11.06;68.36;101745.88;5099301;28;20035;-45
2023/01/30 01:46:05;;;;;;;11.70;3.35;;;;;;;11.02;68.77;101738.81;5105842;28;20040;-41
2023/01/30 01:48:38;;;;;;;14.70;3.38;;;;;;;10.78;69.81;101749.50;5101261;28;20043;-44
2023/01/30 01:51:16;;;;;;;9.30;3.15;;;;;;;10.41;71.97;101748.50;5100128;28;20505;-41
2023/01/30 01:53:49;;;;;;;14.65;3.60;;;;;;;10.47;71.04;101751.28;5103951;28;20032;-42
2023/01/30 01:56:17;;;;;;;11.90;3.28;;;;;;;10.51;71.06;101744.41;5100395;28;20058;-43
2023/01/30 01:58:49;;;;;;;14.00;2.97;;;;;;;10.47;71.97;101746.06;5104363;28;20050;-42
2023/01/30 02:01:14;;;;;;;11.25;3.20;;;;;;;10.55;72.19;101739.31;5099280;28;20035;-41
2023/01/30 02:03:44;;;;;;;11.23;3.13;;;;;;;10.44;72.78;101742.47;5104002;28;20032;-41
2023/01/30 02:06:11;;;;;;;10.68;3.35;;;;;;;10.37;72.84;101744.03;5099791;28;20490;-42
2023/01/30 02:08:40;;;;;;;10.75;2.88;;;;;;;10.46;72.24;101728.66;5104337;28;20027;-43
2023/01/30 02:11:24;;;;;;;11.15;3.15;;;;;;;10.48;72.11;101734.81;5099255;28;20131;-40
2023/01/30 02:13:50;;;;;;;11.13;2.72;;;;;;;10.64;71.22;101722.16;5105247;28;20039;-44
2023/01/30 02:16:16;;;;;;;7.03;2.60;;;;;;;10.41;71.50;101719.84;5100434;28;20035;-40
2023/01/30 02:18:44;;;;;;;10.23;3.00;;;;;;;10.50;70.86;101732.22;5103576;28;20070;-43
2023/01/30 02:21:37;;;;;;;9.65;2.53;;;;;;;10.64;71.66;101715.22;5102762;28;20031;-43
2023/01/30 02:24:32;;;;;;;16.05;3.10;;;;;;;10.60;71.23;101721.22;5099852;28;20408;-41
2023/01/30 02:27:26;;;;;;;12.23;2.78;;;;;;;10.46;71.87;101707.78;5100697;28;20032;-43
2023/01/30 02:30:13;;;;;;;14.10;3.10;;;;;;;10.56;70.69;101719.34;5098783;28;20043;-41
2023/01/30 02:33:06;;;;;;;14.35;2.85;;;;;;;10.45;71.21;101721.66;5103414;28;20043;-43
2023/01/30 02:35:40;;;;;;;12.25;3.03;;;;;;;10.53;72.08;101716.66;5100935;28;20035;-42
2023/01/30 02:38:08;;;;;;;11.27;2.95;;;;;;;10.33;71.76;101726.53;5104539;28;20035;-40
2023/01/30 02:41:10;;;;;;;13.82;3.15;;;;;;;10.20;72.56;101734.84;5098998;28;20066;-42
2023/01/30 02:43:59;;;;;;;11.13;3.40;;;;;;;10.50;71.86;101717.47;5099600;28;20047;-43
2023/01/30 02:46:50;;;;;;;7.57;2.58;;;;;;;10.54;70.91;101731.47;5099774;28;20040;-41
2023/01/30 02:49:20;;;;;;;12.13;3.17;;;;;;;10.47;71.67;101719.09;5099352;28;20031;-41
2023/01/30 02:51:47;;;;;;;15.05;2.95;;;;;;;10.67;71.22;101710.09;5102695;28;20039;-43
2023/01/30 02:54:13;;;;;;;12.70;3.20;;;;;;;10.66;70.94;101720.50;5099589;28;20544;-42
2023/01/30 02:56:58;;;;;;;12.27;3.42;;;;;;;10.34;71.52;101715.28;5103484;28;20035;-41
2023/01/30 02:59:30;;;;;;;14.73;3.40;;;;;;;10.71;71.01;101705.84;5099737;28;20065;-42
2023/01/30 03:02:04;;;;;;;12.77;3.00;;;;;;;10.48;71.23;101700.03;5102682;28;20038;-41
2023/01/30 03:05:05;;;;;;;9.95;2.88;;;;;;;10.19;72.07;101712.22;5099647;28;20047;-42
2023/01/30 03:07:43;;;;;;;14.30;3.95;;;;;;;10.18;72.64;101713.09;5099896;28;20122;-40
2023/01/30 03:10:15;;;;;;;10.18;3.10;;;;;;;10.52;71.34;101718.38;5099769;28;20038;-41
2023/01/30 03:12:59;;;;;;;12.25;3.35;;;;;;;10.84;70.37;101711.41;5105338;28;20510;-44
2023/01/30 03:15:42;;;;;;;15.60;3.40;;;;;;;10.39;71.59;101705.84;5101692;28;20040;-42
2023/01/30 03:18:08;;;;;;;13.48;3.05;;;;;;;10.43;71.38;101705.09;5102107;28;20024;-43
2023/01/30 03:20:38;;;;;;;13.73;3.53;;;;;;;10.39;71.81;101694.53;5105283;28;20061;-40
2023/01/30 03:23:04;;;;;;;11.07;2.95;;;;;;;10.43;72.45;101693.81;5102202;28;20032;-42
2023/01/30 03:25:31;;;;;;;15.98;3.25;;;;;;;10.49;71.32;101691.38;5104721;28;20046;-40
2023/01/30 03:27:57;;;;;;;16.02;3.55;;;;;;;10.38;72.11;101704.09;5102961;28;20406;-41
2023/01/30 03:30:25;;;;;;;11.18;3.00;;;;;;;10.51;71.32;101707.91;5097960;28;20028;-40
2023/01/30 03:32:50;;;;;;;14.63;3.15;;;;;;;10.41;71.80;101696.38;5102484;28;20055;-42
2023/01/30 03:35:16;;;;;;;12.80;3.20;;;;;;;10.70;70.72;101689.31;5098763;28;20059;-41
2023/01/30 03:37:43;;;;;;;13.68;2.88;;;;;;;10.70;70.83;101686.69;5101324;28;20043;-40
2023/01/30 03:40:10;;;;;;;14.35;2.90;;;;;;;10.58;71.70;101702.91;5098767;28;20043;-40
2023/01/30 03:42:36;;;;;;;14.82;3.28;;;;;;;10.75;70.70;101705.06;5102278;28;20160;-43
2023/01/30 03:45:01;;;;;;;13.98;2.83;;;;;;;10.65;70.94;101703.97;5104241;28;20036;-43
2023/01/30 03:47:26;;;;;;;13.95;3.72;;;;;;;10.75;70.52;101708.56;5101159;28;20039;-42
2023/01/30 03:49:51;;;;;;;12.70;3.22;;;;;;;10.74;71.06;101712.00;5102985;28;20047;-40
2023/01/30 03:52:17;;;;;;;17.73;3.60;;;;;;;10.85;70.52;101692.31;5097230;28;20085;-41
2023/01/30 03:54:42;;;;;;;19.05;3.13;;;;;;;10.81;71.09;101697.41;5102475;28;20043;-41
2023/01/30 03:57:07;;;;;;;17.73;3.35;;;;;;;10.57;71.78;101692.44;5097839;28;20032;-42
2023/01/30 03:59:33;;;;;;;13.02;2.97;;;;;;;10.68;71.59;101695.31;5102176;28;20062;-42
2023/01/30 04:01:58;;;;;;;18.55;3.83;;;;;;;10.53;72.11;101691.47;5101368;28;20379;-43
2023/01/30 04:04:23;;;;;;;16.00;3.50;;;;;;;10.50;71.84;101696.59;5098055;28;20711;-40
2023/01/30 04:06:49;;;;;;;13.73;2.95;;;;;;;10.59;71.52;101682.94;5102454;28;20058;-42
2023/01/30 04:09:14;;;;;;;13.65;3.00;;;;;;;10.71;70.79;101678.03;5098869;28;20063;-43
2023/01/30 04:11:40;;;;;;;14.07;3.35;;;;;;;10.80;70.15;101673.03;5101286;28;20093;-40
2023/01/30 04:14:05;;;;;;;9.35;2.40;;;;;;;10.76;69.56;101681.63;5098102;28;20035;-42
2023/01/30 04:16:30;;;;;;;16.15;2.88;;;;;;;10.58;70.10;101681.16;5101328;28;20085;-42
2023/01/30 04:18:56;;;;;;;10.27;3.00;;;;;;;10.36;70.42;101697.97;5101518;28;20059;-41
2023/01/30 04:21:21;;;;;;;11.57;2.78;;;;;;;10.40;69.86;101698.94;5097167;28;20093;-41
2023/01/30 04:23:46;;;;;;;8.57;2.42;;;;;;;10.59;69.17;101706.41;5102179;28;20032;-41
2023/01/30 04:26:12;;;;;;;8.93;2.50;;;;;;;10.62;68.23;101700.38;5097642;28;20046;-44
2023/01/30 04:28:38;;;;;;;11.70;2.97;;;;;;;10.58;67.82;101713.34;5102275;28;20039;-42
2023/01/30 04:31:04;;;;;;;13.98;2.22;;;;;;;10.67;67.00;101715.31;5097456;28;20071;-44
2023/01/30 04:33:34;;;;;;;9.45;2.30;;;;;;;10.62;65.35;101721.22;5102223;28;20063;-42
2023/01/30 04:36:01;;;;;;;12.55;2.28;;;;;;;10.94;64.21;101734.28;5104864;28;20069;-43
2023/01/30 04:38:28;;;;;;;11.52;2.22;;;;;;;10.85;63.58;101736.66;5100776;28;20089;-43
2023/01/30 04:40:55;;;;;;;7.10;2.00;;;;;;;10.82;63.50;101730.47;5102680;28;20055;-41
2023/01/30 04:43:21;;;;;;;9.43;2.30;;;;;;;10.95;62.77;101730.84;5100032;28;20361;-43
2023/01/30 04:45:48;;;;;;;12.88;2.75;;;;;;;11.14;62.74;101740.00;5105394;28;20044;-41
2023/01/30 04:48:15;;;;;;;11.73;2.42;;;;;;;10.93;63.01;101732.50;5101976;28;20036;-41
2023/01/30 04:50:42;;;;;;;10.73;2.25;;;;;;;10.99;63.23;101743.09;5105146;28;20496;-42
2023/01/30 04:53:08;;;;;;;14.85;2.58;;;;;;;10.81;63.35;101721.75;5102403;28;20043;-37
2023/01/30 04:55:33;;;;;;;14.18;2.53;;;;;;;10.93;63.51;101735.13;5105950;28;20031;-40
2023/01/30 04:57:59;;;;;;;11.10;2.45;;;;;;;10.66;63.98;101737.03;5105380;28;20390;-42
2023/01/30 05:00:24;;;;;;;14.60;2.70;;;;;;;10.94;63.36;101741.22;5101212;28;20402;-41
2023/01/30 05:02:50;;;;;;;11.98;2.72;;;;;;;10.70;63.58;101744.06;5105414;28;20040;-43
2023/01/30 05:05:16;;;;;;;12.23;2.35;;;;;;;10.66;63.41;101749.16;5101543;28;20120;-43
2023/01/30 05:07:41;;;;;;;17.75;2.75;;;;;;;10.45;64.16;101757.28;5105474;28;20250;-42
2023/01/30 05:10:07;;;;;;;15.55;2.58;;;;;;;10.46;64.54;101744.28;5083290;28;20050;-41
2023/01/30 05:12:33;;;;;;;11.27;2.70;;;;;;;10.49;64.09;101749.56;5106037;28;20035;-40
2023/01/30 05:14:58;;;;;;;17.75;2.92;;;;;;;10.45;64.12;101736.41;5107086;28;20046;-45
2023/01/30 05:17:23;;;;;;;11.13;2.50;;;;;;;10.34;64.24;101746.56;5103986;28;20093;-45
2023/01/30 05:19:48;;;;;;;11.43;2.60;;;;;;;10.37;64.53;101738.81;5108850;28;20039;-42
2023/01/30 05:22:14;;;;;;;17.55;2.65;;;;;;;10.14;64.92;101745.94;5104032;28;20104;-42
2023/01/30 05:24:39;;;;;;;15.57;3.05;;;;;;;10.20;65.30;101749.59;5107932;28;20548;-41
2023/01/30 05:27:04;;;;;;;17.95;2.75;;;;;;;10.21;65.63;101741.84;5098024;28;21036;-43
2023/01/30 05:29:30;;;;;;;14.73;2.65;;;;;;;10.45;64.78;101736.41;5088475;28;20600;-41
2023/01/30 05:31:55;;;;;;;19.05;3.20;;;;;;;10.25;65.32;101738.47;5105936;28;20028;-40
2023/01/30 05:34:20;;;;;;;15.57;2.88;;;;;;;10.20;65.62;101755.69;5100869;28;20028;-41
2023/01/30 05:36:46;;;;;;;17.35;3.40;;;;;;;10.04;66.07;101750.84;5104818;28;20409;-45
2023/01/30 05:39:11;;;;;;;19.60;3.20;;;;;;;9.98;66.31;101767.19;5100898;28;20232;-44
2023/01/30 05:41:37;;;;;;;14.90;3.00;;;;;;;9.99;66.05;101773.28;5105884;28;20521;-41
2023/01/30 05:44:02;;;;;;;14.23;2.78;;;;;;;10.21;65.27;101760.06;5103896;28;20413;-44
2023/01/30 05:46:27;;;;;;;22.95;3.97;;;;;;;10.26;65.17;101773.22;5107734;28;20031;-39
2023/01/30 05:48:53;;;;;;;21.70;2.90;;;;;;;10.00;65.43;101783.72;5107777;28;20067;-40
2023/01/30 05:51:23;;;;;;;20.48;2.97;;;;;;;9.76;65.49;101775.16;5103095;28;20071;-46
2023/01/30 05:53:49;;;;;;;20.17;3.03;;;;;;;9.76;65.32;101778.66;5104754;28;20027;-43
2023/01/30 05:56:15;;;;;;;20.77;2.90;;;;;;;9.74;65.38;101779.47;5102236;28;20451;-42
2023/01/30 05:58:41;;;;;;;24.45;2.83;;;;;;;9.63;64.85;101771.34;5106653;28;20046;-41
2023/01/30 06:01:09;;;;;;;24.00;3.60;;;;;;;9.84;64.28;101758.06;5102064;28;20112;-41
2023/01/30 06:03:36;;;;;;;23.50;3.10;;;;;;;9.73;63.80;101744.72;5104828;28;20082;-40
2023/01/30 06:06:03;;;;;;;18.77;3.03;;;;;;;9.64;64.05;101761.78;5085747;28;20071;-41
2023/01/30 06:08:29;;;;;;;21.63;3.10;;;;;;;9.87;63.39;101763.38;5099845;28;20079;-42
2023/01/30 06:10:58;;;;;;;21.70;3.15;;;;;;;9.63;63.91;101778.25;5103648;28;20028;-42
2023/01/30 06:13:23;;;;;;;14.82;2.92;;;;;;;9.72;63.13;101781.13;5100488;28;20031;-43
2023/01/30 06:15:48;;;;;;;21.67;2.90;;;;;;;9.75;62.30;101768.22;5104830;28;20044;-44
2023/01/30 06:18:14;;;;;;;25.88;3.10;;;;;;;9.69;62.00;101760.22;5101489;28;20027;-41
2023/01/30 06:20:39;;;;;;;22.63;2.70;;;;;;;9.77;61.60;101753.50;5104089;28;20152;-41
2023/01/30 06:23:04;;;;;;;19.80;2.70;;;;;;;9.79;61.02;101762.25;5100312;28;20319;-41
2023/01/30 06:25:30;;;;;;;22.63;2.78;;;;;;;9.50;61.64;101758.75;5104036;28;20055;-41
2023/01/30 06:27:55;;;;;;;19.05;3.30;;;;;;;9.61;61.42;101785.13;5103269;28;20035;-43
2023/01/30 06:30:20;;;;;;;21.73;3.25;;;;;;;9.57;60.82;101778.94;5099643;28;20130;-44
2023/01/30 06:32:49;;;;;;;25.05;3.55;;;;;;;9.50;59.79;101776.09;5103243;28;20123;-42
2023/01/30 06:35:15;;;;;;;24.75;3.00;;;;;;;9.49;59.53;101783.03;5100561;28;20169;-41
2023/01/30 06:37:40;;;;;;;22.52;2.70;;;;;;;9.52;58.42;101775.28;5103302;28;20122;-40
2023/01/30 06:40:06;;;;;;;25.58;2.65;;;;;;;9.80;57.79;101773.56;5099806;28;20031;-42
2023/01/30 06:42:31;;;;;;;20.75;2.70;;;;;;;9.48;57.73;101763.03;5104520;28;20409;-42
2023/01/30 06:44:56;;;;;;;20.27;2.83;;;;;;;9.48;58.26;101773.44;5105439;28;20032;-42
2023/01/30 06:47:22;;;;;;;16.92;2.58;;;;;;;9.67;57.85;101774.91;5103645;28;20151;-44
2023/01/30 06:49:48;;;;;;;16.50;2.47;;;;;;;9.44;57.52;101774.19;5105976;28;20162;-42
2023/01/30 06:52:16;;;;;;;13.18;2.15;;;;;;;9.56;57.22;101773.69;5095589;22;20050;-75
2023/01/30 06:54:41;;;;;;;19.85;2.97;;;;;;;9.68;56.80;101769.75;5063662;28;20090;-75
2023/01/30 06:57:06;;;;;;;18.52;2.63;;;;;;;9.66;56.96;101773.13;5059220;28;20037;-75
2023/01/30 06:59:32;;;;;;;12.82;2.60;;;;;;;9.71;56.71;101793.25;5045510;28;20442;-76
2023/01/30 07:01:57;;;;;;;17.77;2.85;;;;;;;9.18;58.26;101796.75;5062191;28;20036;-75
2023/01/30 07:04:22;;;;;;;18.33;2.63;;;;;;;9.64;57.72;101798.22;5058863;28;20406;-75
2023/01/30 07:06:48;;;;;;;17.17;2.47;;;;;;;9.57;57.51;101798.88;5061632;28;20583;-75
2023/01/30 07:09:16;;;;;;;20.63;2.72;;;;;;;9.38;57.46;101786.09;5028883;28;20112;-77
2023/01/30 07:11:42;;;;;;;15.45;2.67;;;;;;;9.38;57.60;101807.81;5062703;28;20033;-75
2023/01/30 07:14:08;;;;;;;17.88;2.40;;;;;;;9.66;56.91;101809.59;5059035;28;20081;-75
2023/01/30 07:16:33;;;;;;;21.20;3.35;;;;;;;9.29;58.46;101818.78;5060689;28;20391;-74
2023/01/30 07:18:59;;;;;;;16.65;2.35;;;;;;;9.61;57.67;101824.19;5043955;28;20062;-75
2023/01/30 07:21:26;;;;;;;20.90;2.60;;;;;;;9.88;56.80;101827.63;5078493;28;20028;-76
2023/01/30 07:23:51;;;;;;;19.23;2.70;;;;;;;9.68;57.59;101819.22;5082486;28;20448;-76
2023/01/30 07:26:16;;;;;;;15.77;2.70;;;;;;;9.47;57.91;101813.31;5078392;28;20118;-75
2023/01/30 07:28:41;;;;;;;18.33;2.45;;;;;;;9.45;57.80;101816.72;5083003;28;20127;-75
2023/01/30 07:31:07;;;;;;;20.38;2.97;;;;;;;9.50;58.15;101813.41;5077496;28;20062;-75
2023/01/30 07:33:32;;;;;;;18.83;2.78;;;;;;;9.33;58.38;101820.66;5083013;28;20120;-76
2023/01/30 07:35:57;;;;;;;14.50;2.53;;;;;;;9.33;58.30;101819.78;5064539;28;20027;-76
2023/01/30 07:38:23;;;;;;;16.55;2.50;;;;;;;9.73;57.28;101814.16;5041207;28;20029;-74
2023/01/30 07:40:48;;;;;;;21.35;3.00;;;;;;;9.58;57.23;101816.25;5041951;28;20095;-75
2023/01/30 07:43:14;;;;;;;16.70;2.80;;;;;;;9.68;57.66;101820.94;5020617;28;20552;-75
2023/01/30 07:45:45;;;;;;;17.48;2.63;;;;;;;9.50;57.73;101817.75;5042494;28;20457;-75
2023/01/30 07:48:16;;;;;;;20.67;2.80;;;;;;;9.46;58.11;101806.31;5038613;28;20041;-75
2023/01/30 07:50:42;;;;;;;25.65;3.40;;;;;;;9.65;58.07;101834.72;5041569;28;20029;-76
2023/01/30 07:53:13;;;;;;;13.13;2.33;;;;;;;9.63;58.07;101835.53;5020690;28;20037;-76
2023/01/30 07:55:38;;;;;;;19.02;2.50;;;;;;;9.55;58.57;101837.88;5042650;28;20119;-75
2023/01/30 07:58:04;;;;;;;19.85;2.70;;;;;;;9.46;58.83;101834.97;5010873;28;20640;-75
2023/01/30 08:00:29;;;;;;;21.92;2.72;;;;;;;9.51;58.83;101829.94;5041537;28;20049;-76
2023/01/30 08:02:55;;;;;;;19.05;2.95;;;;;;;9.73;58.16;101861.03;5024419;28;20033;-76
2023/01/30 08:05:20;;;;;;;19.65;3.00;;;;;;;9.35;59.30;101867.56;5037660;28;20087;-76
2023/01/30 08:07:48;;;;;;;23.83;2.83;;;;;;;9.73;58.07;101864.50;5042255;28;20060;-77
2023/01/30 08:10:14;;;;;;;15.35;2.65;;;;;;;9.68;58.04;101845.25;5037778;28;20047;-75
2023/01/30 08:12:40;;;;;;;18.92;2.80;;;;;;;9.57;58.36;101858.75;5041556;28;20048;-76
2023/01/30 08:15:07;;;;;;;15.25;2.55;;;;;;;9.83;57.53;101855.25;5037362;28;20478;-75
2023/01/30 08:17:35;;;;;;;19.25;2.67;;;;;;;9.98;57.17;101847.94;5053637;28;20102;-76
2023/01/30 08:20:00;;;;;;;16.85;2.50;;;;;;;9.66;57.93;101846.03;5066227;28;20032;-75
2023/01/30 08:22:27;;;;;;;18.40;2.67;;;;;;;9.80;57.72;101841.28;5061942;28;20066;-75
2023/01/30 08:24:53;;;;;;;17.73;2.70;;;;;;;9.73;57.98;101853.22;5065630;28;20029;-76
2023/01/30 08:27:18;;;;;;;19.15;2.70;;;;;;;9.77;57.59;101863.78;5061677;28;20037;-75
2023/01/30 08:29:43;;;;;;;16.00;2.75;;;;;;;9.70;58.05;101859.19;5065972;28;20048;-76
2023/01/30 08:32:09;;;;;;;19.25;2.88;;;;;;;9.71;58.04;101860.97;5043042;28;20497;-75
2023/01/30 08:34:34;;;;;;;19.23;2.72;;;;;;;10.06;57.19;101849.03;5065454;28;20059;-75
2023/01/30 08:37:00;;;;;;;14.50;2.75;;;;;;;10.01;57.25;101867.97;5065620;28;20095;-76
2023/01/30 08:39:25;;;;;;;16.80;2.53;;;;;;;9.77;57.67;101876.78;5061774;28;20421;-76
2023/01/30 08:41:51;;;;;;;21.50;3.50;;;;;;;10.32;56.89;101885.47;5065344;28;20412;-76
2023/01/30 08:44:16;;;;;;;23.27;2.90;;;;;;;10.03;56.67;101900.19;5061363;28;20393;-76
2023/01/30 08:46:41;;;;;;;20.58;2.72;;;;;;;10.04;56.56;101905.44;5047301;28;20436;-75
2023/01/30 08:49:07;;;;;;;15.20;2.50;;;;;;;10.09;55.85;101909.09;5061871;28;20445;-76
2023/01/30 08:51:32;;;;;;;20.67;2.58;;;;;;;10.20;55.97;101911.16;5047790;28;20131;-75
2023/01/30 08:53:58;;;;;;;13.63;2.22;;;;;;;10.24;56.19;101910.44;5065991;28;20132;-77
2023/01/30 08:56:23;;;;;;;17.55;2.80;;;;;;;10.16;56.29;101920.59;5043399;28;20070;-76
2023/01/30 08:58:49;;;;;;;19.42;2.95;;;;;;;10.48;56.26;101919.91;5065915;28;20047;-76
2023/01/30 09:01:15;;;;;;;17.08;2.63;;;;;;;10.48;55.90;101917.31;5061909;28;20037;-75
2023/01/30 09:03:41;;;;;;;17.77;2.53;;;;;;;10.20;56.58;101934.63;5066136;28;20029;-74
2023/01/30 09:06:07;;;;;;;21.33;2.55;;;;;;;10.44;55.75;101924.97;5061445;28;20044;-76
2023/01/30 09:08:32;;;;;;;21.67;2.50;;;;;;;10.21;56.49;101923.38;5069387;28;20499;-75
2023/01/30 09:10:59;;;;;;;16.30;2.20;;;;;;;10.14;56.33;101919.66;5072832;28;20064;-76
2023/01/30 09:13:25;;;;;;;17.90;2.80;;;;;;;10.27;56.30;101923.56;5056391;28;20051;-75
2023/01/30 09:15:50;;;;;;;20.75;3.28;;;;;;;10.07;57.00;101933.31;5055685;28;20048;-75
2023/01/30 09:18:16;;;;;;;19.25;2.78;;;;;;;10.24;56.14;101931.28;5067455;28;20115;-75
2023/01/30 09:20:41;;;;;;;23.92;2.55;;;;;;;9.97;57.17;101949.47;5072729;28;20044;-74
2023/01/30 09:23:07;;;;;;;19.55;2.75;;;;;;;10.13;56.41;101952.63;5069805;28;20033;-77
2023/01/30 09:25:32;;;;;;;12.50;2.20;;;;;;;10.68;55.65;101937.84;5067078;28;20083;-76
2023/01/30 09:27:58;;;;;;;16.80;2.67;;;;;;;10.82;54.75;101946.97;5064495;28;20087;-76
2023/01/30 09:30:24;;;;;;;13.95;2.63;;;;;;;10.46;55.12;101944.16;5059961;28;20036;-75
2023/01/30 09:32:49;;;;;;;13.68;2.15;;;;;;;10.66;54.55;101927.41;5064643;28;20430;-75
2023/01/30 09:35:14;;;;;;;12.85;2.30;;;;;;;10.44;55.58;101945.81;5060172;28;20066;-75
2023/01/30 09:37:50;;;;;;;16.77;2.78;;;;;;;10.68;55.20;101953.50;5064658;28;20037;-76
2023/01/30 09:40:28;;;;;;;18.92;2.33;;;;;;;10.45;55.36;101961.50;5042399;28;20067;-79
2023/01/30 09:43:26;;;;;;;22.42;2.60;;;;;;;11.01;54.70;101957.09;5064837;28;20047;-75
2023/01/30 09:46:04;;;;;;;19.27;2.50;;;;;;;10.63;55.24;101966.41;5042173;28;20583;-76
2023/01/30 09:48:41;;;;;;;23.77;2.70;;;;;;;10.58;55.60;101968.00;5050971;28;20064;-76
2023/01/30 09:51:26;;;;;;;24.67;2.78;;;;;;;10.46;56.23;101978.03;5059420;28;20158;-77
2023/01/30 09:53:58;;;;;;;13.35;2.20;;;;;;;10.66;55.78;101981.28;5064570;28;20063;-75
2023/01/30 09:56:24;;;;;;;21.10;2.55;;;;;;;10.85;55.66;101973.16;5059712;28;20043;-75
2023/01/30 09:58:55;;;;;;;17.80;2.78;;;;;;;10.44;55.69;101979.69;5064003;28;20076;-76
2023/01/30 10:01:47;;;;;;;19.48;2.90;;;;;;;10.49;55.58;101973.78;5041464;28;20037;-76
2023/01/30 10:04:40;;;;;;;18.98;2.45;;;;;;;10.67;55.51;101999.59;5048224;28;20029;-76
2023/01/30 10:07:08;;;;;;;22.02;3.83;;;;;;;10.49;55.68;102004.22;5041511;28;20124;-76
2023/01/30 10:10:02;;;;;;;18.90;2.80;;;;;;;10.80;54.34;102006.91;5045963;28;20125;-76
2023/01/30 10:12:45;;;;;;;16.92;2.40;;;;;;;10.86;54.36;102019.25;5059048;28;20039;-76
2023/01/30 10:15:28;;;;;;;18.45;2.50;;;;;;;10.64;55.00;102016.84;5059145;28;20041;-75
2023/01/30 10:18:14;;;;;;;21.25;2.58;;;;;;;10.43;55.51;102032.72;5053331;28;20581;-75
2023/01/30 10:21:08;;;;;;;14.65;2.80;;;;;;;10.60;55.41;102008.03;5059598;28;20063;-77
2023/01/30 10:23:46;;;;;;;18.67;2.83;;;;;;;10.67;55.51;102023.06;5041216;28;20440;-75
2023/01/30 10:26:19;;;;;;;25.83;3.15;;;;;;;10.54;55.51;102019.19;5059363;28;20124;-76
2023/01/30 10:28:55;;;;;;;19.63;2.72;;;;;;;10.72;55.06;102050.16;5063336;28;20068;-76
2023/01/30 10:31:25;;;;;;;18.45;2.72;;;;;;;10.73;55.38;102040.63;5058395;28;20112;-76
2023/01/30 10:33:59;;;;;;;20.90;2.75;;;;;;;11.28;54.00;102036.19;5063284;28;20508;-77
2023/01/30 10:36:44;;;;;;;19.45;2.92;;;;;;;10.97;54.43;102036.16;5047920;28;20033;-75
2023/01/30 10:39:24;;;;;;;19.52;2.80;;;;;;;10.89;54.73;102035.03;5040905;28;20040;-77
2023/01/30 10:42:22;;;;;;;22.38;3.10;;;;;;;10.55;55.43;102026.13;5061396;28;20040;-76
2023/01/30 10:44:48;;;;;;;22.00;2.60;;;;;;;10.71;55.83;102030.13;5058641;28;20036;-76
2023/01/30 10:47:19;;;;;;;19.23;2.70;;;;;;;11.11;54.96;102031.31;5057711;28;20056;-76
2023/01/30 10:49:51;;;;;;;18.25;2.65;;;;;;;10.90;55.01;102039.41;5063532;28;20132;-76
2023/01/30 10:52:35;;;;;;;20.45;2.80;;;;;;;10.77;55.51;102059.00;5032801;28;20045;-77
2023/01/30 10:55:15;;;;;;;19.05;2.70;;;;;;;10.80;55.56;102045.16;5063061;28;20081;-76
2023/01/30 10:58:05;;;;;;;17.38;3.05;;;;;;;10.97;55.66;102041.38;5048402;28;20033;-76
2023/01/30 11:00:45;;;;;;;15.80;3.15;;;;;;;10.83;56.16;102059.19;5040568;28;20181;-77
2023/01/30 11:03:20;;;;;;;20.80;2.97;;;;;;;11.16;55.24;102067.16;5058125;28;20041;-77
2023/01/30 11:05:55;;;;;;;21.95;2.80;;;;;;;11.16;55.54;102054.09;5044580;28;20043;-76
2023/01/30 11:08:26;;;;;;;18.23;2.72;;;;;;;11.35;54.75;102059.03;5059534;28;20044;-75
2023/01/30 11:10:53;;;;;;;21.20;2.97;;;;;;;10.92;55.74;102061.19;5062923;28;20036;-75
2023/01/30 11:13:21;;;;;;;22.65;3.20;;;;;;;10.87;55.91;102058.44;5058720;28;20402;-76
2023/01/30 11:15:50;;;;;;;18.90;3.08;;;;;;;10.85;55.97;102069.69;5062648;28;20082;-75
2023/01/30 11:18:17;;;;;;;21.70;3.20;;;;;;;11.06;55.58;102062.50;5058826;28;20040;-76
2023/01/30 11:20:50;;;;;;;19.67;3.28;;;;;;;10.68;56.63;102056.09;5061991;28;20037;-76
2023/01/30 11:23:31;;;;;;;17.08;3.33;;;;;;;10.59;57.01;102055.81;5058677;28;20090;-76
2023/01/30 11:25:57;;;;;;;18.85;3.08;;;;;;;10.84;56.86;102060.09;5054464;28;20062;-75
2023/01/30 11:28:25;;;;;;;19.40;3.08;;;;;;;11.06;56.38;102045.97;5076295;28;20064;-77
2023/01/30 11:30:57;;;;;;;26.40;3.53;;;;;;;10.85;57.08;102054.03;5082531;28;20028;-77
2023/01/30 11:33:30;;;;;;;22.35;3.38;;;;;;;10.93;56.74;102050.81;5046012;28;21496;-77